createdAt,value
2023-05-17T00:00:33.084Z,94.98
2023-05-17T00:01:33.065Z,94.98
2023-05-17T00:02:33.115Z,94.98
2023-05-17T00:03:33.304Z,94.87
2023-05-17T00:04:33.115Z,94.87
2023-05-17T00:05:33.108Z,94.77
2023-05-17T00:06:33.055Z,94.77
2023-05-17T00:07:33.100Z,94.67
2023-05-17T00:08:33.072Z,94.56
2023-05-17T00:09:33.285Z,94.67
2023-05-17T00:10:32.982Z,94.56
2023-05-17T00:11:32.972Z,94.87
2023-05-17T00:12:32.978Z,94.81
2023-05-17T00:13:32.951Z,94.81
2023-05-17T00:14:32.945Z,95.02
2023-05-17T00:15:32.921Z,94.92
2023-05-17T00:16:32.976Z,94.81
2023-05-17T00:17:33.006Z,95.33
2023-05-17T00:18:33.001Z,95.43
2023-05-17T00:19:32.932Z,95.39
2023-05-17T00:20:32.881Z,95.39
2023-05-17T00:21:32.877Z,95.18
2023-05-17T00:22:32.855Z,94.87
2023-05-17T00:23:32.856Z,94.56
2023-05-17T00:24:32.815Z,94.56
2023-05-17T00:25:32.862Z,94.56
2023-05-17T00:26:32.829Z,94.46
2023-05-17T00:27:32.800Z,94.51
2023-05-17T00:28:32.790Z,94.51
2023-05-17T00:29:32.797Z,94.71
2023-05-17T00:30:32.795Z,94.60
2023-05-17T00:31:32.814Z,94.60
2023-05-17T00:32:32.772Z,95.02
2023-05-17T00:33:32.742Z,95.23
2023-05-17T00:34:32.760Z,95.12
2023-05-17T00:35:32.696Z,95.28
2023-05-17T00:36:32.719Z,95.49
2023-05-17T00:37:32.718Z,95.49
2023-05-17T00:38:32.666Z,95.49
2023-05-17T00:39:32.665Z,95.49
2023-05-17T00:40:32.673Z,95.28
2023-05-17T00:41:32.654Z,95.18
2023-05-17T00:42:32.663Z,94.87
2023-05-17T00:43:32.616Z,94.67
2023-05-17T00:44:32.602Z,94.67
2023-05-17T00:45:32.660Z,94.71
2023-05-17T00:46:32.618Z,94.60
2023-05-17T00:47:32.670Z,94.51
2023-05-17T00:48:32.715Z,94.60
2023-05-17T00:49:32.595Z,94.60
2023-05-17T00:50:32.578Z,94.60
2023-05-17T00:51:32.550Z,95.02
2023-05-17T00:52:32.531Z,95.33
2023-05-17T00:53:32.508Z,95.53
2023-05-17T00:54:32.544Z,95.43
2023-05-17T00:55:32.506Z,95.37
2023-05-17T00:56:32.482Z,95.27
2023-05-17T00:57:32.494Z,95.27
2023-05-17T00:58:32.444Z,95.37
2023-05-17T00:59:32.497Z,95.17
2023-05-17T01:00:32.444Z,95.17
2023-05-17T01:01:32.440Z,95.37
2023-05-17T01:02:32.435Z,95.48
2023-05-17T01:03:32.499Z,95.48
2023-05-17T01:04:32.452Z,95.37
2023-05-17T01:05:32.404Z,95.37
2023-05-17T01:06:32.372Z,95.37
2023-05-17T01:07:32.426Z,95.48
2023-05-17T01:08:32.382Z,95.48
2023-05-17T01:09:33.325Z,95.37
2023-05-17T01:10:32.348Z,95.58
2023-05-17T01:11:32.338Z,95.58
2023-05-17T01:12:32.348Z,95.78
2023-05-17T01:13:32.345Z,95.93
2023-05-17T01:14:32.274Z,95.83
2023-05-17T01:15:32.335Z,95.83
2023-05-17T01:16:32.305Z,95.73
2023-05-17T01:17:32.374Z,95.62
2023-05-17T01:18:32.357Z,95.62
2023-05-17T01:19:32.389Z,95.62
2023-05-17T01:20:32.295Z,95.83
2023-05-17T01:21:32.241Z,95.73
2023-05-17T01:22:32.255Z,96.03
2023-05-17T01:23:32.221Z,96.14
2023-05-17T01:24:32.195Z,96.14
2023-05-17T01:25:32.243Z,96.18
2023-05-17T01:26:32.262Z,96.28
2023-05-17T01:27:32.190Z,96.28
2023-05-17T01:28:32.158Z,96.18
2023-05-17T01:29:32.149Z,96.08
2023-05-17T01:30:32.131Z,96.08
2023-05-17T01:31:32.120Z,96.28
2023-05-17T01:32:32.137Z,96.18
2023-05-17T01:33:32.200Z,96.39
2023-05-17T01:34:32.080Z,96.49
2023-05-17T01:35:32.125Z,96.59
2023-05-17T01:36:32.085Z,96.53
2023-05-17T01:37:32.069Z,96.53
2023-05-17T01:38:32.057Z,96.53
2023-05-17T01:39:32.029Z,96.64
2023-05-17T01:40:32.017Z,96.44
2023-05-17T01:41:32.076Z,96.44
2023-05-17T01:42:32.006Z,96.44
2023-05-17T01:43:31.996Z,96.44
2023-05-17T01:44:33.119Z,96.53
2023-05-17T01:45:32.023Z,96.53
2023-05-17T01:46:32.002Z,96.53
2023-05-17T01:47:31.961Z,96.84
2023-05-17T01:48:32.024Z,96.95
2023-05-17T01:49:31.959Z,97.47
2023-05-17T01:50:31.924Z,97.98
2023-05-17T01:51:31.949Z,98.29
2023-05-17T01:52:31.920Z,98.70
2023-05-17T01:53:31.932Z,99.43
2023-05-17T01:54:31.888Z,99.84
2023-05-17T01:55:31.901Z,99.99
2023-05-17T01:56:31.938Z,99.99
2023-05-17T01:57:31.847Z,99.99
2023-05-17T01:58:31.866Z,99.99
2023-05-17T01:59:31.895Z,99.99
2023-05-17T02:00:31.830Z,99.99
2023-05-17T02:01:31.817Z,99.99
2023-05-17T02:02:31.809Z,99.99
2023-05-17T02:03:31.841Z,99.99
2023-05-17T02:04:31.801Z,99.99
2023-05-17T02:05:31.741Z,99.99
2023-05-17T02:06:31.759Z,99.99
2023-05-17T02:07:31.756Z,99.99
2023-05-17T02:08:31.733Z,99.99
2023-05-17T02:09:31.740Z,99.99
2023-05-17T02:10:31.692Z,99.99
2023-05-17T02:11:31.703Z,99.99
2023-05-17T02:12:31.703Z,99.99
2023-05-17T02:13:31.703Z,99.99
2023-05-17T02:14:31.690Z,99.99
2023-05-17T02:15:31.656Z,99.99
2023-05-17T02:16:31.630Z,99.99
2023-05-17T02:17:31.710Z,99.99
2023-05-17T02:18:31.740Z,99.99
2023-05-17T02:19:31.756Z,99.99
2023-05-17T02:20:31.620Z,99.99
2023-05-17T02:21:31.585Z,99.99
2023-05-17T02:22:31.580Z,99.99
2023-05-17T02:23:31.590Z,99.99
2023-05-17T02:24:31.565Z,99.99
2023-05-17T02:25:31.711Z,99.99
2023-05-17T02:26:31.526Z,99.99
2023-05-17T02:27:31.518Z,99.99
2023-05-17T02:28:31.507Z,99.99
2023-05-17T02:29:31.505Z,99.99
2023-05-17T02:30:31.496Z,99.99
2023-05-17T02:31:31.469Z,99.99
2023-05-17T02:32:31.568Z,99.99
2023-05-17T02:33:31.507Z,99.99
2023-05-17T02:34:31.462Z,99.99
2023-05-17T02:35:31.502Z,99.99
2023-05-17T02:36:31.434Z,99.99
2023-05-17T02:37:31.453Z,99.99
2023-05-17T02:38:31.450Z,99.99
2023-05-17T02:39:31.383Z,99.99
2023-05-17T02:40:31.406Z,99.99
2023-05-17T02:41:31.377Z,99.99
2023-05-17T02:42:31.359Z,99.99
2023-05-17T02:43:31.344Z,99.99
2023-05-17T02:44:31.341Z,99.99
2023-05-17T02:45:31.351Z,99.99
2023-05-17T02:46:31.346Z,99.99
2023-05-17T02:47:31.457Z,99.99
2023-05-17T02:48:31.310Z,99.99
2023-05-17T02:49:31.264Z,99.99
2023-05-17T02:50:31.291Z,99.99
2023-05-17T02:51:31.376Z,99.80
2023-05-17T02:52:31.291Z,99.49
2023-05-17T02:53:31.244Z,99.39
2023-05-17T02:54:31.234Z,99.39
2023-05-17T02:55:31.302Z,99.39
2023-05-17T02:56:31.161Z,99.43
2023-05-17T02:57:31.200Z,99.54
2023-05-17T02:58:31.197Z,99.54
2023-05-17T02:59:31.147Z,99.64
2023-05-17T03:00:31.122Z,99.85
2023-05-17T03:01:31.167Z,99.85
2023-05-17T03:02:31.223Z,99.74
2023-05-17T03:03:31.270Z,99.85
2023-05-17T03:04:31.147Z,99.74
2023-05-17T03:05:31.144Z,99.74
2023-05-17T03:06:31.103Z,99.74
2023-05-17T03:07:31.102Z,99.64
2023-05-17T03:08:31.039Z,99.74
2023-05-17T03:09:31.013Z,99.85
2023-05-17T03:10:31.032Z,99.95
2023-05-17T03:11:31.142Z,99.99
2023-05-17T03:12:30.992Z,99.99
2023-05-17T03:13:31.006Z,99.99
2023-05-17T03:14:31.031Z,99.99
2023-05-17T03:15:31.167Z,99.99
2023-05-17T03:16:30.935Z,99.99
2023-05-17T03:17:30.996Z,99.99
2023-05-17T03:18:31.007Z,99.99
2023-05-17T03:19:30.928Z,99.99
2023-05-17T03:20:30.881Z,99.99
2023-05-17T03:21:30.880Z,99.99
2023-05-17T03:22:30.890Z,99.90
2023-05-17T03:23:30.905Z,99.80
2023-05-17T03:24:30.882Z,99.80
2023-05-17T03:25:30.924Z,99.80
2023-05-17T03:26:30.834Z,99.90
2023-05-17T03:27:30.910Z,99.90
2023-05-17T03:28:30.804Z,99.80
2023-05-17T03:29:30.784Z,99.70
2023-05-17T03:30:30.872Z,99.60
2023-05-17T03:31:30.786Z,99.70
2023-05-17T03:32:30.877Z,99.70
2023-05-17T03:33:30.917Z,99.80
2023-05-17T03:34:30.754Z,99.90
2023-05-17T03:35:30.978Z,99.99
2023-05-17T03:36:30.784Z,99.99
2023-05-17T03:37:30.725Z,99.99
2023-05-17T03:38:30.725Z,99.99
2023-05-17T03:39:30.688Z,99.99
2023-05-17T03:40:30.699Z,99.99
2023-05-17T03:41:30.710Z,99.99
2023-05-17T03:42:30.663Z,99.99
2023-05-17T03:43:30.648Z,99.99
2023-05-17T03:44:30.635Z,99.99
2023-05-17T03:45:30.820Z,99.99
2023-05-17T03:46:30.645Z,99.99
2023-05-17T03:47:30.656Z,99.99
2023-05-17T03:48:30.617Z,99.99
2023-05-17T03:49:30.587Z,99.99
2023-05-17T03:50:30.574Z,99.99
2023-05-17T03:51:30.548Z,99.99
2023-05-17T03:52:30.576Z,99.99
2023-05-17T03:53:30.531Z,99.99
2023-05-17T03:54:30.565Z,99.99
2023-05-17T03:55:30.653Z,99.99
2023-05-17T03:56:30.505Z,99.99
2023-05-17T03:57:30.500Z,99.86
2023-05-17T03:58:30.495Z,99.65
2023-05-17T03:59:30.493Z,99.55
2023-05-17T04:00:30.507Z,99.44
2023-05-17T04:01:30.509Z,99.14
2023-05-17T04:02:30.500Z,99.04
2023-05-17T04:03:30.436Z,98.93
2023-05-17T04:04:30.482Z,98.72
2023-05-17T04:05:30.762Z,98.62
2023-05-17T04:06:30.444Z,98.52
2023-05-17T04:07:30.375Z,98.42
2023-05-17T04:08:30.419Z,98.32
2023-05-17T04:09:30.365Z,98.32
2023-05-17T04:10:31.022Z,98.32
2023-05-17T04:11:30.349Z,98.21
2023-05-17T04:12:30.780Z,98.11
2023-05-17T04:13:30.350Z,98.11
2023-05-17T04:14:30.339Z,98.21
2023-05-17T04:15:30.412Z,98.32
2023-05-17T04:16:30.324Z,98.42
2023-05-17T04:17:30.343Z,98.32
2023-05-17T04:18:30.323Z,98.42
2023-05-17T04:19:30.889Z,98.52
2023-05-17T04:20:30.286Z,98.62
2023-05-17T04:21:30.254Z,98.72
2023-05-17T04:22:30.272Z,98.72
2023-05-17T04:23:30.211Z,98.83
2023-05-17T04:24:30.225Z,98.83
2023-05-17T04:25:30.453Z,98.83
2023-05-17T04:26:30.222Z,98.83
2023-05-17T04:27:30.202Z,98.72
2023-05-17T04:28:30.197Z,98.62
2023-05-17T04:29:30.142Z,98.72
2023-05-17T04:30:30.194Z,98.72
2023-05-17T04:31:30.182Z,98.83
2023-05-17T04:32:30.174Z,98.93
2023-05-17T04:33:30.154Z,99.04
2023-05-17T04:34:30.097Z,99.14
2023-05-17T04:35:30.317Z,99.24
2023-05-17T04:36:30.114Z,99.24
2023-05-17T04:37:30.056Z,99.24
2023-05-17T04:38:30.110Z,99.14
2023-05-17T04:39:30.942Z,99.04
2023-05-17T04:40:30.057Z,98.93
2023-05-17T04:41:30.023Z,98.93
2023-05-17T04:42:30.040Z,98.83
2023-05-17T04:43:30.073Z,98.83
2023-05-17T04:44:30.052Z,98.83
2023-05-17T04:45:30.069Z,98.72
2023-05-17T04:46:29.995Z,98.68
2023-05-17T04:47:30.158Z,98.68
2023-05-17T04:48:30.058Z,98.58
2023-05-17T04:49:29.967Z,98.47
2023-05-17T04:50:29.959Z,98.58
2023-05-17T04:51:29.928Z,98.47
2023-05-17T04:52:29.922Z,98.47
2023-05-17T04:53:29.917Z,98.58
2023-05-17T04:54:29.937Z,98.58
2023-05-17T04:55:30.074Z,98.47
2023-05-17T04:56:29.879Z,98.47
2023-05-17T04:57:29.857Z,98.47
2023-05-17T04:58:29.891Z,98.58
2023-05-17T04:59:29.903Z,98.58
2023-05-17T05:00:29.911Z,98.58
2023-05-17T05:01:29.817Z,98.68
2023-05-17T05:02:29.875Z,98.88
2023-05-17T05:03:29.823Z,98.99
2023-05-17T05:04:29.845Z,99.09
2023-05-17T05:05:30.522Z,99.30
2023-05-17T05:06:30.786Z,99.40
2023-05-17T05:07:29.946Z,99.40
2023-05-17T05:08:29.756Z,99.30
2023-05-17T05:09:29.780Z,99.40
2023-05-17T05:10:29.779Z,99.51
2023-05-17T05:11:29.708Z,99.91
2023-05-17T05:12:29.725Z,99.99
2023-05-17T05:13:29.697Z,99.99
2023-05-17T05:14:29.710Z,99.99
2023-05-17T05:15:29.843Z,99.99
2023-05-17T05:16:29.681Z,99.99
2023-05-17T05:17:29.696Z,99.99
2023-05-17T05:18:29.715Z,99.99
2023-05-17T05:19:29.736Z,99.99
2023-05-17T05:20:29.669Z,99.99
2023-05-17T05:21:29.636Z,99.99
2023-05-17T05:22:29.632Z,99.99
2023-05-17T05:23:29.617Z,99.99
2023-05-17T05:24:29.576Z,99.99
2023-05-17T05:25:29.861Z,99.93
2023-05-17T05:26:29.564Z,99.77
2023-05-17T05:27:29.578Z,99.57
2023-05-17T05:28:29.542Z,99.37
2023-05-17T05:29:29.510Z,99.05
2023-05-17T05:30:29.560Z,98.44
2023-05-17T05:31:29.530Z,98.44
2023-05-17T05:32:29.553Z,98.39
2023-05-17T05:33:29.608Z,98.39
2023-05-17T05:34:29.521Z,98.19
2023-05-17T05:35:29.925Z,97.47
2023-05-17T05:36:29.479Z,97.47
2023-05-17T05:37:29.476Z,96.34
2023-05-17T05:38:29.447Z,96.55
2023-05-17T05:39:29.462Z,96.95
2023-05-17T05:40:29.745Z,97.02
2023-05-17T05:41:29.419Z,97.12
2023-05-17T05:42:29.403Z,97.42
2023-05-17T05:43:30.195Z,97.22
2023-05-17T05:44:29.388Z,96.70
2023-05-17T05:45:29.361Z,96.70
2023-05-17T05:46:29.368Z,96.56
2023-05-17T05:47:29.389Z,95.74
2023-05-17T05:48:29.412Z,95.17
2023-05-17T05:49:29.382Z,94.20
2023-05-17T05:50:29.573Z,94.92
2023-05-17T05:51:29.315Z,94.51
2023-05-17T05:52:29.335Z,94.40
2023-05-17T05:53:29.304Z,95.02
2023-05-17T05:54:29.322Z,94.20
2023-05-17T05:55:29.249Z,93.59
2023-05-17T05:56:29.264Z,93.99
2023-05-17T05:57:29.300Z,93.89
2023-05-17T05:58:29.252Z,92.86
2023-05-17T05:59:29.223Z,92.46
2023-05-17T06:00:29.453Z,92.86
2023-05-17T06:01:29.204Z,92.55
2023-05-17T06:02:29.255Z,92.14
2023-05-17T06:03:29.203Z,93.02
2023-05-17T06:04:40.680Z,93.02
2023-05-17T06:05:29.203Z,92.31
2023-05-17T06:06:29.266Z,92.41
2023-05-17T06:07:29.167Z,92.10
2023-05-17T06:08:29.169Z,91.59
2023-05-17T06:09:29.131Z,91.90
2023-05-17T06:10:29.312Z,92.00
2023-05-17T06:11:29.081Z,92.93
2023-05-17T06:12:29.133Z,92.93
2023-05-17T06:13:29.114Z,92.31
2023-05-17T06:14:29.100Z,90.77
2023-05-17T06:15:29.049Z,90.26
2023-05-17T06:16:29.067Z,90.01
2023-05-17T06:17:29.089Z,90.11
2023-05-17T06:18:29.808Z,89.29
2023-05-17T06:19:29.156Z,89.81
2023-05-17T06:20:29.269Z,86.42
2023-05-17T06:21:29.016Z,87.04
2023-05-17T06:22:29.020Z,87.34
2023-05-17T06:23:29.013Z,88.78
2023-05-17T06:24:28.982Z,90.79
2023-05-17T06:25:28.951Z,90.69
2023-05-17T06:26:29.824Z,90.58
2023-05-17T06:27:28.933Z,88.02
2023-05-17T06:28:28.931Z,88.80
2023-05-17T06:29:28.914Z,87.16
2023-05-17T06:30:29.098Z,85.52
2023-05-17T06:31:28.871Z,83.78
2023-05-17T06:32:28.916Z,84.50
2023-05-17T06:33:28.896Z,83.88
2023-05-17T06:34:28.854Z,83.88
2023-05-17T06:35:30.166Z,85.42
2023-05-17T06:36:28.830Z,84.39
2023-05-17T06:37:28.844Z,84.29
2023-05-17T06:38:28.828Z,84.15
2023-05-17T06:39:28.817Z,84.25
2023-05-17T06:40:28.839Z,82.27
2023-05-17T06:41:28.794Z,84.58
2023-05-17T06:42:28.845Z,80.60
2023-05-17T06:43:28.860Z,79.47
2023-05-17T06:44:28.737Z,79.78
2023-05-17T06:45:28.760Z,82.75
2023-05-17T06:46:28.767Z,79.27
2023-05-17T06:47:28.884Z,80.90
2023-05-17T06:48:29.032Z,82.34
2023-05-17T06:49:28.783Z,80.90
2023-05-17T06:50:28.943Z,82.43
2023-05-17T06:51:28.758Z,81.15
2023-05-17T06:52:28.651Z,80.02
2023-05-17T06:53:28.689Z,80.43
2023-05-17T06:54:28.645Z,82.17
2023-05-17T06:55:31.003Z,81.96
2023-05-17T06:56:28.641Z,82.78
2023-05-17T06:57:28.653Z,80.63
2023-05-17T06:58:28.624Z,79.50
2023-05-17T06:59:28.621Z,79.91
2023-05-17T07:00:29.056Z,78.79
2023-05-17T07:01:28.570Z,77.94
2023-05-17T07:02:28.678Z,77.12
2023-05-17T07:03:28.644Z,77.94
2023-05-17T07:04:28.682Z,75.93
2023-05-17T07:05:28.758Z,76.23
2023-05-17T07:06:28.510Z,75.45
2023-05-17T07:07:28.537Z,76.98
2023-05-17T07:08:28.503Z,77.91
2023-05-17T07:09:29.448Z,75.86
2023-05-17T07:10:28.480Z,77.39
2023-05-17T07:11:28.788Z,76.78
2023-05-17T07:12:28.521Z,76.84
2023-05-17T07:13:28.504Z,72.89
2023-05-17T07:14:28.429Z,73.30
2023-05-17T07:15:28.630Z,74.08
2023-05-17T07:16:28.420Z,74.08
2023-05-17T07:17:28.500Z,76.54
2023-05-17T07:18:28.553Z,74.80
2023-05-17T07:19:28.455Z,74.97
2023-05-17T07:20:28.364Z,74.05
2023-05-17T07:21:28.359Z,72.62
2023-05-17T07:22:28.352Z,74.35
2023-05-17T07:23:28.369Z,73.47
2023-05-17T07:24:28.331Z,71.53
2023-05-17T07:25:28.510Z,71.94
2023-05-17T07:26:28.336Z,70.92
2023-05-17T07:27:28.343Z,71.36
2023-05-17T07:28:28.340Z,74.43
2023-05-17T07:29:28.293Z,71.08
2023-05-17T07:30:28.325Z,73.23
2023-05-17T07:31:28.278Z,74.15
2023-05-17T07:32:28.310Z,73.85
2023-05-17T07:33:28.267Z,74.97
2023-05-17T07:34:28.516Z,75.24
2023-05-17T07:35:28.520Z,72.72
2023-05-17T07:36:28.249Z,72.86
2023-05-17T07:37:28.811Z,71.01
2023-05-17T07:38:28.214Z,70.84
2023-05-17T07:39:28.210Z,71.05
2023-05-17T07:40:28.169Z,74.22
2023-05-17T07:41:28.170Z,75.04
2023-05-17T07:42:28.191Z,75.14
2023-05-17T07:43:28.162Z,75.27
2023-05-17T07:44:28.113Z,72.96
2023-05-17T07:45:28.498Z,74.84
2023-05-17T07:46:28.094Z,74.52
2023-05-17T07:47:28.143Z,72.41
2023-05-17T07:48:28.331Z,73.94
2023-05-17T07:49:28.389Z,71.83
2023-05-17T07:50:28.228Z,71.29
2023-05-17T07:51:31.022Z,70.51
2023-05-17T07:52:28.082Z,71.39
2023-05-17T07:53:28.051Z,70.85
2023-05-17T07:54:28.009Z,67.86
2023-05-17T07:55:28.693Z,72.31
2023-05-17T07:56:28.046Z,65.97
2023-05-17T07:57:27.997Z,66.58
2023-05-17T07:58:27.972Z,67.63
2023-05-17T07:59:27.971Z,63.89
2023-05-17T08:00:27.945Z,65.55
2023-05-17T08:01:27.974Z,69.63
2023-05-17T08:02:27.959Z,66.94
2023-05-17T08:03:27.925Z,66.71
2023-05-17T08:04:27.977Z,65.08
2023-05-17T08:05:28.220Z,67.73
2023-05-17T08:06:27.937Z,66.85
2023-05-17T08:07:27.932Z,64.56
2023-05-17T08:08:27.876Z,65.17
2023-05-17T08:09:27.866Z,65.51
2023-05-17T08:10:27.868Z,69.90
2023-05-17T08:11:27.876Z,68.30
2023-05-17T08:12:27.821Z,69.24
2023-05-17T08:13:27.837Z,70.37
2023-05-17T08:14:28.337Z,70.37
2023-05-17T08:15:27.938Z,68.94
2023-05-17T08:16:27.782Z,69.24
2023-05-17T08:17:27.797Z,69.07
2023-05-17T08:18:27.881Z,69.69
2023-05-17T08:19:29.151Z,69.65
2023-05-17T08:20:27.973Z,68.37
2023-05-17T08:21:28.727Z,67.08
2023-05-17T08:22:27.735Z,64.66
2023-05-17T08:23:27.715Z,64.97
2023-05-17T08:24:27.742Z,65.51
2023-05-17T08:25:27.836Z,66.42
2023-05-17T08:26:27.678Z,67.27
2023-05-17T08:27:27.662Z,66.42
2023-05-17T08:28:27.635Z,65.37
2023-05-17T08:29:27.679Z,65.10
2023-05-17T08:30:29.554Z,68.06
2023-05-17T08:31:27.714Z,67.99
2023-05-17T08:32:27.608Z,66.90
2023-05-17T08:33:27.726Z,67.61
2023-05-17T08:34:27.608Z,65.26
2023-05-17T08:35:29.018Z,65.37
2023-05-17T08:36:28.384Z,65.81
2023-05-17T08:37:27.648Z,66.30
2023-05-17T08:38:27.592Z,65.04
2023-05-17T08:39:28.411Z,64.81
2023-05-17T08:40:27.710Z,62.26
2023-05-17T08:41:27.602Z,66.85
2023-05-17T08:42:27.566Z,65.72
2023-05-17T08:43:29.463Z,68.07
2023-05-17T08:44:27.519Z,68.17
2023-05-17T08:45:27.749Z,64.73
2023-05-17T08:46:27.474Z,66.16
2023-05-17T08:47:27.512Z,67.99
2023-05-17T08:48:27.804Z,66.97
2023-05-17T08:49:27.576Z,64.97
2023-05-17T08:50:27.644Z,66.53
2023-05-17T08:51:27.411Z,67.04
2023-05-17T08:52:27.489Z,68.98
2023-05-17T08:53:27.669Z,67.65
2023-05-17T08:54:31.262Z,67.24
2023-05-17T08:55:27.412Z,66.63
2023-05-17T08:56:27.426Z,67.14
2023-05-17T08:57:27.619Z,71.02
2023-05-17T08:58:27.452Z,69.96
2023-05-17T08:59:27.366Z,67.49
2023-05-17T09:00:27.432Z,65.65
2023-05-17T09:01:28.427Z,65.25
2023-05-17T09:02:28.347Z,67.90
2023-05-17T09:03:27.453Z,63.51
2023-05-17T09:04:27.292Z,63.31
2023-05-17T09:05:27.410Z,62.52
2023-05-17T09:06:29.460Z,67.04
2023-05-17T09:07:27.250Z,67.62
2023-05-17T09:08:27.313Z,67.49
2023-05-17T09:09:27.304Z,66.23
2023-05-17T09:10:28.220Z,64.20
2023-05-17T09:11:27.226Z,64.70
2023-05-17T09:12:27.330Z,67.15
2023-05-17T09:13:27.167Z,63.89
2023-05-17T09:14:27.249Z,65.72
2023-05-17T09:15:28.097Z,65.52
2023-05-17T09:16:27.172Z,66.50
2023-05-17T09:17:27.202Z,66.50
2023-05-17T09:18:27.285Z,64.23
2023-05-17T09:19:27.989Z,66.61
2023-05-17T09:20:27.712Z,64.17
2023-05-17T09:21:27.926Z,64.73
2023-05-17T09:22:28.482Z,64.53
2023-05-17T09:23:27.136Z,65.34
2023-05-17T09:24:27.118Z,69.12
2023-05-17T09:25:29.881Z,68.51
2023-05-17T09:26:27.054Z,67.69
2023-05-17T09:27:27.026Z,69.70
2023-05-17T09:28:27.057Z,66.16
2023-05-17T09:29:27.056Z,67.18
2023-05-17T09:30:27.198Z,68.54
2023-05-17T09:31:27.380Z,65.37
2023-05-17T09:32:26.990Z,65.07
2023-05-17T09:33:27.053Z,67.32
2023-05-17T09:34:27.020Z,68.13
2023-05-17T09:35:27.215Z,64.49
2023-05-17T09:36:26.966Z,63.57
2023-05-17T09:37:27.024Z,64.49
2023-05-17T09:38:27.985Z,66.63
2023-05-17T09:39:26.942Z,65.41
2023-05-17T09:40:27.865Z,66.06
2023-05-17T09:41:27.186Z,64.50
2023-05-17T09:42:26.881Z,64.50
2023-05-17T09:43:26.917Z,62.87
2023-05-17T09:44:26.885Z,63.34
2023-05-17T09:45:27.200Z,64.25
2023-05-17T09:46:26.901Z,67.72
2023-05-17T09:47:26.958Z,67.24
2023-05-17T09:48:26.975Z,65.71
2023-05-17T09:49:26.916Z,65.51
2023-05-17T09:50:27.095Z,68.40
2023-05-17T09:51:26.784Z,65.54
2023-05-17T09:52:26.777Z,66.90
2023-05-17T09:53:26.840Z,63.12
2023-05-17T09:54:26.826Z,62.51
2023-05-17T09:55:28.302Z,62.61
2023-05-17T09:56:26.728Z,62.68
2023-05-17T09:57:26.791Z,61.35
2023-05-17T09:58:29.803Z,61.80
2023-05-17T09:59:26.752Z,63.92
2023-05-17T10:00:27.403Z,64.70
2023-05-17T10:01:26.668Z,61.00
2023-05-17T10:02:26.726Z,57.92
2023-05-17T10:03:26.772Z,58.10
2023-05-17T10:04:26.676Z,57.08
2023-05-17T10:05:26.875Z,58.51
2023-05-17T10:06:39.223Z,58.10
2023-05-17T10:07:26.664Z,60.14
2023-05-17T10:08:26.653Z,59.14
2023-05-17T10:09:26.612Z,58.05
2023-05-17T10:10:26.584Z,60.50
2023-05-17T10:11:26.593Z,58.49
2023-05-17T10:12:26.594Z,61.54
2023-05-17T10:13:26.589Z,60.63
2023-05-17T10:14:26.632Z,63.15
2023-05-17T10:15:26.718Z,59.45
2023-05-17T10:16:26.539Z,60.37
2023-05-17T10:17:26.588Z,61.87
2023-05-17T10:18:26.670Z,59.12
2023-05-17T10:19:26.637Z,62.27
2023-05-17T10:20:26.523Z,60.77
2023-05-17T10:21:26.525Z,61.69
2023-05-17T10:22:26.484Z,60.09
2023-05-17T10:23:26.525Z,60.12
2023-05-17T10:24:26.422Z,60.12
2023-05-17T10:25:26.456Z,59.94
2023-05-17T10:26:26.475Z,60.55
2023-05-17T10:27:26.945Z,61.75
2023-05-17T10:28:26.366Z,61.82
2023-05-17T10:29:26.354Z,60.37
2023-05-17T10:30:27.156Z,60.14
2023-05-17T10:31:26.467Z,60.59
2023-05-17T10:32:26.452Z,59.64
2023-05-17T10:33:27.027Z,59.21
2023-05-17T10:34:26.318Z,56.98
2023-05-17T10:35:26.346Z,56.77
2023-05-17T10:36:28.882Z,54.49
2023-05-17T10:37:26.287Z,61.40
2023-05-17T10:38:35.189Z,59.67
2023-05-17T10:39:26.302Z,59.06
2023-05-17T10:40:26.323Z,58.78
2023-05-17T10:41:26.294Z,55.66
2023-05-17T10:42:26.258Z,60.14
2023-05-17T10:43:27.126Z,62.45
2023-05-17T10:44:26.227Z,59.98
2023-05-17T10:45:27.172Z,59.88
2023-05-17T10:46:26.202Z,55.10
2023-05-17T10:47:26.207Z,55.81
2023-05-17T10:48:26.338Z,57.23
2023-05-17T10:49:26.332Z,57.34
2023-05-17T10:50:26.275Z,56.73
2023-05-17T10:51:26.135Z,55.81
2023-05-17T10:52:26.093Z,56.52
2023-05-17T10:53:26.137Z,57.95
2023-05-17T10:54:26.138Z,56.55
2023-05-17T10:55:26.186Z,63.23
2023-05-17T10:56:27.012Z,60.28
2023-05-17T10:57:26.580Z,61.10
2023-05-17T10:58:26.090Z,61.91
2023-05-17T10:59:26.048Z,56.95
2023-05-17T11:00:26.125Z,57.54
2023-05-17T11:01:26.065Z,57.21
2023-05-17T11:02:26.017Z,56.16
2023-05-17T11:03:26.036Z,57.97
2023-05-17T11:04:26.432Z,58.14
2023-05-17T11:05:26.476Z,56.62
2023-05-17T11:06:26.180Z,58.45
2023-05-17T11:07:25.961Z,56.72
2023-05-17T11:08:25.968Z,58.54
2023-05-17T11:09:25.951Z,57.35
2023-05-17T11:10:26.062Z,53.91
2023-05-17T11:11:25.882Z,55.78
2023-05-17T11:12:26.319Z,57.34
2023-05-17T11:13:25.903Z,57.43
2023-05-17T11:14:25.897Z,57.56
2023-05-17T11:15:25.887Z,55.33
2023-05-17T11:16:25.870Z,55.43
2023-05-17T11:17:25.842Z,54.72
2023-05-17T11:18:30.806Z,57.06
2023-05-17T11:19:25.927Z,60.31
2023-05-17T11:20:25.988Z,57.90
2023-05-17T11:21:25.806Z,55.96
2023-05-17T11:22:25.811Z,56.81
2023-05-17T11:23:25.820Z,55.79
2023-05-17T11:24:25.773Z,57.08
2023-05-17T11:25:25.770Z,55.46
2023-05-17T11:26:25.744Z,55.43
2023-05-17T11:27:25.752Z,55.30
2023-05-17T11:28:25.748Z,55.45
2023-05-17T11:29:25.704Z,55.32
2023-05-17T11:30:25.742Z,52.89
2023-05-17T11:31:25.762Z,52.58
2023-05-17T11:32:25.719Z,53.27
2023-05-17T11:33:33.645Z,57.33
2023-05-17T11:34:25.803Z,56.52
2023-05-17T11:35:25.653Z,52.58
2023-05-17T11:36:25.697Z,54.03
2023-05-17T11:37:25.661Z,56.60
2023-05-17T11:38:25.641Z,55.48
2023-05-17T11:39:25.658Z,56.57
2023-05-17T11:40:25.603Z,53.91
2023-05-17T11:41:27.331Z,59.08
2023-05-17T11:42:26.012Z,53.50
2023-05-17T11:43:25.842Z,54.03
2023-05-17T11:44:25.584Z,55.58
2023-05-17T11:45:25.852Z,56.21
2023-05-17T11:46:25.582Z,58.65
2023-05-17T11:47:25.633Z,55.63
2023-05-17T11:48:25.857Z,55.83
2023-05-17T11:49:34.839Z,57.49
2023-05-17T11:50:25.557Z,57.46
2023-05-17T11:51:25.502Z,58.04
2023-05-17T11:52:27.301Z,52.96
2023-05-17T11:53:25.557Z,55.07
2023-05-17T11:54:25.559Z,52.63
2023-05-17T11:55:25.479Z,53.85
2023-05-17T11:56:35.684Z,53.32
2023-05-17T11:57:25.466Z,56.06
2023-05-17T11:58:25.570Z,52.91
2023-05-17T11:59:25.431Z,55.86
2023-05-17T12:00:25.412Z,54.41
2023-05-17T12:01:25.426Z,54.41
2023-05-17T12:02:25.426Z,56.01
2023-05-17T12:03:25.392Z,56.09
2023-05-17T12:04:25.392Z,54.33
2023-05-17T12:05:25.432Z,53.83
2023-05-17T12:06:25.381Z,51.82
2023-05-17T12:07:25.554Z,53.58
2023-05-17T12:08:25.359Z,52.66
2023-05-17T12:09:25.352Z,51.65
2023-05-17T12:10:25.293Z,53.37
2023-05-17T12:11:25.361Z,53.78
2023-05-17T12:12:25.589Z,54.33
2023-05-17T12:13:25.339Z,56.39
2023-05-17T12:14:25.275Z,55.25
2023-05-17T12:15:25.546Z,53.22
2023-05-17T12:16:25.256Z,57.59
2023-05-17T12:17:25.326Z,50.76
2023-05-17T12:18:25.333Z,54.41
2023-05-17T12:19:25.341Z,53.37
2023-05-17T12:20:25.266Z,50.93
2023-05-17T12:21:25.779Z,53.34
2023-05-17T12:22:25.218Z,52.23
2023-05-17T12:23:25.192Z,51.62
2023-05-17T12:24:25.180Z,52.56
2023-05-17T12:25:25.268Z,51.24
2023-05-17T12:26:25.189Z,51.16
2023-05-17T12:27:25.180Z,54.84
2023-05-17T12:28:25.141Z,53.42
2023-05-17T12:29:25.826Z,56.34
2023-05-17T12:30:25.086Z,54.39
2023-05-17T12:31:25.067Z,53.96
2023-05-17T12:32:25.149Z,52.11
2023-05-17T12:33:25.125Z,51.62
2023-05-17T12:34:25.099Z,52.84
2023-05-17T12:35:25.030Z,56.97
2023-05-17T12:36:25.058Z,50.71
2023-05-17T12:37:25.031Z,52.84
2023-05-17T12:38:25.040Z,56.16
2023-05-17T12:39:25.026Z,55.55
2023-05-17T12:40:25.014Z,53.40
2023-05-17T12:41:24.982Z,51.75
2023-05-17T12:42:24.970Z,50.54
2023-05-17T12:43:24.990Z,50.61
2023-05-17T12:44:24.965Z,51.12
2023-05-17T12:45:24.934Z,51.02
2023-05-17T12:46:24.941Z,52.44
2023-05-17T12:47:24.937Z,52.84
2023-05-17T12:48:24.924Z,50.84
2023-05-17T12:49:24.928Z,52.18
2023-05-17T12:50:24.935Z,52.20
2023-05-17T12:51:24.883Z,55.35
2023-05-17T12:52:24.883Z,51.75